Terminal Aerodrome Forecast
Issued by NWS Sterling, VA

Current Version | Previous Version | Graphics & Text | Print | Product List | Glossary On
Versions: 1 2 3 4 5 6 7 8 9 10 11 12 13 14 15 16 17 18 19
000
FTUS41 KLWX 300500
TAFMRB
TAF
KMRB 300540Z 3006/3106 VRB04KT P6SM SCT030 BKN050
     FM300700 30011KT P6SM BKN050
     FM301400 31014G28KT P6SM BKN040
     FM302100 31022G35KT P6SM SCT040
     FM310400 31016G22KT P6SM FEW250=

USA.gov is the U.S. government's official web portal to all federal, state and local government web resources and services.